sensor_id;sensor_type;location;lat;lon;timestamp;temperature;humidity
23869;DHT22;12115;47.128;15.422;2023-04-01T00:00:53;8.30;99.90
23869;DHT22;12115;47.128;15.422;2023-04-01T00:03:22;8.30;99.90
23869;DHT22;12115;47.128;15.422;2023-04-01T00:05:50;8.20;99.90
23869;DHT22;12115;47.128;15.422;2023-04-01T00:08:20;8.20;99.90
23869;DHT22;12115;47.128;15.422;2023-04-01T00:10:48;8.20;99.90
23869;DHT22;12115;47.128;15.422;2023-04-01T00:13:16;8.20;99.90
23869;DHT22;12115;47.128;15.422;2023-04-01T00:15:44;8.10;99.90
23869;DHT22;12115;47.128;15.422;2023-04-01T00:18:12;8.10;99.90
23869;DHT22;12115;47.128;15.422;2023-04-01T00:20:44;8.10;99.90
23869;DHT22;12115;47.128;15.422;2023-04-01T00:23:11;8.10;99.90
23869;DHT22;12115;47.128;15.422;2023-04-01T00:25:39;8.10;99.90
23869;DHT22;12115;47.128;15.422;2023-04-01T00:28:06;8.10;99.90
23869;DHT22;12115;47.128;15.422;2023-04-01T00:30:36;8.10;99.90
23869;DHT22;12115;47.128;15.422;2023-04-01T00:33:04;8.10;99.90
23869;DHT22;12115;47.128;15.422;2023-04-01T00:35:32;8.10;99.90
23869;DHT22;12115;47.128;15.422;2023-04-01T00:37:59;8.10;99.90
23869;DHT22;12115;47.128;15.422;2023-04-01T00:40:39;8.00;99.90
23869;DHT22;12115;47.128;15.422;2023-04-01T00:43:16;8.00;99.90
23869;DHT22;12115;47.128;15.422;2023-04-01T00:45:47;8.00;99.90
23869;DHT22;12115;47.128;15.422;2023-04-01T00:48:16;7.90;99.90
23869;DHT22;12115;47.128;15.422;2023-04-01T00:50:54;7.90;99.90
23869;DHT22;12115;47.128;15.422;2023-04-01T00:53:23;7.90;99.90
23869;DHT22;12115;47.128;15.422;2023-04-01T00:55:59;7.90;99.90
23869;DHT22;12115;47.128;15.422;2023-04-01T00:58:29;7.90;99.90
23869;DHT22;12115;47.128;15.422;2023-04-01T01:00:59;7.90;99.90
23869;DHT22;12115;47.128;15.422;2023-04-01T01:03:27;7.90;99.90
23869;DHT22;12115;47.128;15.422;2023-04-01T01:08:50;7.80;99.90
23869;DHT22;12115;47.128;15.422;2023-04-01T01:11:25;7.80;99.90
23869;DHT22;12115;47.128;15.422;2023-04-01T01:17:23;7.60;99.90
23869;DHT22;12115;47.128;15.422;2023-04-01T01:31:49;7.60;99.90
23869;DHT22;12115;47.128;15.422;2023-04-01T01:37:38;7.50;99.90
23869;DHT22;12115;47.128;15.422;2023-04-01T01:40:09;7.40;99.90
23869;DHT22;12115;47.128;15.422;2023-04-01T01:42:47;7.40;99.90
23869;DHT22;12115;47.128;15.422;2023-04-01T01:45:18;7.40;99.90
23869;DHT22;12115;47.128;15.422;2023-04-01T01:47:46;7.40;99.90
23869;DHT22;12115;47.128;15.422;2023-04-01T01:50:15;7.40;99.90
23869;DHT22;12115;47.128;15.422;2023-04-01T01:52:44;7.40;99.90
23869;DHT22;12115;47.128;15.422;2023-04-01T01:55:30;7.30;99.90
23869;DHT22;12115;47.128;15.422;2023-04-01T01:58:44;7.20;99.90
23869;DHT22;12115;47.128;15.422;2023-04-01T02:00:58;7.20;99.90
23869;DHT22;12115;47.128;15.422;2023-04-01T02:03:30;7.20;99.90
23869;DHT22;12115;47.128;15.422;2023-04-01T02:06:02;7.20;99.90
23869;DHT22;12115;47.128;15.422;2023-04-01T02:08:44;7.20;99.90
23869;DHT22;12115;47.128;15.422;2023-04-01T02:11:16;7.20;99.90
23869;DHT22;12115;47.128;15.422;2023-04-01T02:14:15;7.10;99.90
23869;DHT22;12115;47.128;15.422;2023-04-01T02:17:14;7.10;99.90
23869;DHT22;12115;47.128;15.422;2023-04-01T02:20:06;7.00;99.90
23869;DHT22;12115;47.128;15.422;2023-04-01T02:22:38;7.00;99.90
23869;DHT22;12115;47.128;15.422;2023-04-01T02:25:12;6.90;99.90
23869;DHT22;12115;47.128;15.422;2023-04-01T02:27:43;7.00;99.90
23869;DHT22;12115;47.128;15.422;2023-04-01T02:30:13;7.00;99.90
23869;DHT22;12115;47.128;15.422;2023-04-01T02:32:41;7.00;99.90
23869;DHT22;12115;47.128;15.422;2023-04-01T02:35:10;6.90;99.90
23869;DHT22;12115;47.128;15.422;2023-04-01T02:37:39;6.90;99.90
23869;DHT22;12115;47.128;15.422;2023-04-01T02:40:12;6.80;99.90
23869;DHT22;12115;47.128;15.422;2023-04-01T02:42:39;6.80;99.90
23869;DHT22;12115;47.128;15.422;2023-04-01T02:45:08;6.80;99.90
23869;DHT22;12115;47.128;15.422;2023-04-01T02:47:35;6.80;99.90
23869;DHT22;12115;47.128;15.422;2023-04-01T02:50:04;6.80;99.90
23869;DHT22;12115;47.128;15.422;2023-04-01T02:52:33;6.80;99.90
23869;DHT22;12115;47.128;15.422;2023-04-01T02:55:01;6.80;99.90
23869;DHT22;12115;47.128;15.422;2023-04-01T02:57:31;6.70;99.90
23869;DHT22;12115;47.128;15.422;2023-04-01T02:59:58;6.70;99.90
23869;DHT22;12115;47.128;15.422;2023-04-01T03:02:26;6.70;99.90
23869;DHT22;12115;47.128;15.422;2023-04-01T03:04:54;6.70;99.90
23869;DHT22;12115;47.128;15.422;2023-04-01T03:07:21;6.70;99.90
23869;DHT22;12115;47.128;15.422;2023-04-01T03:09:48;6.80;99.90
23869;DHT22;12115;47.128;15.422;2023-04-01T03:12:16;6.80;99.90
23869;DHT22;12115;47.128;15.422;2023-04-01T03:14:49;6.80;99.90
23869;DHT22;12115;47.128;15.422;2023-04-01T03:17:17;6.70;99.90
23869;DHT22;12115;47.128;15.422;2023-04-01T03:19:44;6.70;99.90
23869;DHT22;12115;47.128;15.422;2023-04-01T03:22:12;6.70;99.90
23869;DHT22;12115;47.128;15.422;2023-04-01T03:24:40;6.70;99.90
23869;DHT22;12115;47.128;15.422;2023-04-01T03:27:07;6.60;99.90
23869;DHT22;12115;47.128;15.422;2023-04-01T03:29:35;6.60;99.90
23869;DHT22;12115;47.128;15.422;2023-04-01T03:32:02;6.60;99.90
23869;DHT22;12115;47.128;15.422;2023-04-01T03:34:29;6.60;99.90
23869;DHT22;12115;47.128;15.422;2023-04-01T03:36:57;6.60;99.90
23869;DHT22;12115;47.128;15.422;2023-04-01T03:39:24;6.60;99.90
23869;DHT22;12115;47.128;15.422;2023-04-01T03:41:52;6.60;99.90
23869;DHT22;12115;47.128;15.422;2023-04-01T03:44:19;6.60;99.90
23869;DHT22;12115;47.128;15.422;2023-04-01T03:46:51;6.50;99.90
23869;DHT22;12115;47.128;15.422;2023-04-01T03:49:18;6.50;99.90
23869;DHT22;12115;47.128;15.422;2023-04-01T03:51:45;6.50;99.90
23869;DHT22;12115;47.128;15.422;2023-04-01T03:54:12;6.50;99.90
23869;DHT22;12115;47.128;15.422;2023-04-01T03:56:43;6.50;99.90
23869;DHT22;12115;47.128;15.422;2023-04-01T03:59:10;6.50;99.90
23869;DHT22;12115;47.128;15.422;2023-04-01T04:01:38;6.50;99.90
23869;DHT22;12115;47.128;15.422;2023-04-01T04:04:06;6.50;99.90
23869;DHT22;12115;47.128;15.422;2023-04-01T04:06:34;6.50;99.90
23869;DHT22;12115;47.128;15.422;2023-04-01T04:09:02;6.50;99.90
23869;DHT22;12115;47.128;15.422;2023-04-01T04:11:31;6.50;99.90
23869;DHT22;12115;47.128;15.422;2023-04-01T04:14:00;6.50;99.90
23869;DHT22;12115;47.128;15.422;2023-04-01T04:16:29;6.50;99.90
23869;DHT22;12115;47.128;15.422;2023-04-01T04:19:03;6.50;99.90
23869;DHT22;12115;47.128;15.422;2023-04-01T04:21:30;6.50;99.90
23869;DHT22;12115;47.128;15.422;2023-04-01T04:23:59;6.40;99.90
23869;DHT22;12115;47.128;15.422;2023-04-01T04:26:34;6.50;99.90
23869;DHT22;12115;47.128;15.422;2023-04-01T04:29:02;6.50;99.90
23869;DHT22;12115;47.128;15.422;2023-04-01T04:31:30;6.50;99.90
23869;DHT22;12115;47.128;15.422;2023-04-01T04:34:00;6.50;99.90
23869;DHT22;12115;47.128;15.422;2023-04-01T04:36:33;6.50;99.90
23869;DHT22;12115;47.128;15.422;2023-04-01T04:39:01;6.40;99.90
23869;DHT22;12115;47.128;15.422;2023-04-01T04:41:31;6.50;99.90
23869;DHT22;12115;47.128;15.422;2023-04-01T04:44:00;6.40;99.90
23869;DHT22;12115;47.128;15.422;2023-04-01T04:46:30;6.30;99.90
23869;DHT22;12115;47.128;15.422;2023-04-01T04:49:07;6.30;99.90
23869;DHT22;12115;47.128;15.422;2023-04-01T04:51:34;6.30;99.90
23869;DHT22;12115;47.128;15.422;2023-04-01T04:54:04;6.30;99.90
23869;DHT22;12115;47.128;15.422;2023-04-01T04:56:45;6.30;99.90
23869;DHT22;12115;47.128;15.422;2023-04-01T04:59:12;6.30;99.90
23869;DHT22;12115;47.128;15.422;2023-04-01T05:01:49;6.30;99.90
23869;DHT22;12115;47.128;15.422;2023-04-01T05:04:17;6.30;99.90
23869;DHT22;12115;47.128;15.422;2023-04-01T05:06:45;6.30;99.90
23869;DHT22;12115;47.128;15.422;2023-04-01T05:09:13;6.30;99.90
23869;DHT22;12115;47.128;15.422;2023-04-01T05:11:41;6.40;99.90
23869;DHT22;12115;47.128;15.422;2023-04-01T05:14:14;6.30;99.90
23869;DHT22;12115;47.128;15.422;2023-04-01T05:16:46;6.30;99.90
23869;DHT22;12115;47.128;15.422;2023-04-01T05:19:13;6.40;99.90
23869;DHT22;12115;47.128;15.422;2023-04-01T05:21:41;6.40;99.90
23869;DHT22;12115;47.128;15.422;2023-04-01T05:24:09;6.40;99.90
23869;DHT22;12115;47.128;15.422;2023-04-01T05:26:37;6.40;99.90
23869;DHT22;12115;47.128;15.422;2023-04-01T05:29:05;6.40;99.90
23869;DHT22;12115;47.128;15.422;2023-04-01T05:31:33;6.40;99.90
23869;DHT22;12115;47.128;15.422;2023-04-01T05:34:01;6.40;99.90
23869;DHT22;12115;47.128;15.422;2023-04-01T05:36:28;6.30;99.90
23869;DHT22;12115;47.128;15.422;2023-04-01T05:38:56;6.40;99.90
23869;DHT22;12115;47.128;15.422;2023-04-01T05:41:26;6.40;99.90
23869;DHT22;12115;47.128;15.422;2023-04-01T05:43:53;6.40;99.90
23869;DHT22;12115;47.128;15.422;2023-04-01T05:46:49;6.40;99.90
23869;DHT22;12115;47.128;15.422;2023-04-01T05:49:20;6.40;99.90
23869;DHT22;12115;47.128;15.422;2023-04-01T05:51:49;6.40;99.90
23869;DHT22;12115;47.128;15.422;2023-04-01T05:54:17;6.50;99.90
23869;DHT22;12115;47.128;15.422;2023-04-01T05:56:45;6.50;99.90
23869;DHT22;12115;47.128;15.422;2023-04-01T05:59:15;6.50;99.90
23869;DHT22;12115;47.128;15.422;2023-04-01T06:01:44;6.50;99.90
23869;DHT22;12115;47.128;15.422;2023-04-01T06:04:16;6.60;99.90
23869;DHT22;12115;47.128;15.422;2023-04-01T06:06:45;6.60;99.90
23869;DHT22;12115;47.128;15.422;2023-04-01T06:09:19;6.60;99.90
23869;DHT22;12115;47.128;15.422;2023-04-01T06:20:03;6.70;99.90
23869;DHT22;12115;47.128;15.422;2023-04-01T06:23:00;6.80;99.90
23869;DHT22;12115;47.128;15.422;2023-04-01T06:34:19;7.00;99.90
23869;DHT22;12115;47.128;15.422;2023-04-01T06:45:55;7.40;99.90
23869;DHT22;12115;47.128;15.422;2023-04-01T06:55:30;7.60;99.90
23869;DHT22;12115;47.128;15.422;2023-04-01T06:59:00;7.60;99.90
23869;DHT22;12115;47.128;15.422;2023-04-01T07:01:52;7.70;99.90
23869;DHT22;12115;47.128;15.422;2023-04-01T07:04:33;7.80;99.90
23869;DHT22;12115;47.128;15.422;2023-04-01T07:07:05;7.90;99.90
23869;DHT22;12115;47.128;15.422;2023-04-01T07:09:53;7.90;99.90
23869;DHT22;12115;47.128;15.422;2023-04-01T07:12:54;8.10;99.90
23869;DHT22;12115;47.128;15.422;2023-04-01T07:15:43;8.20;99.90
23869;DHT22;12115;47.128;15.422;2023-04-01T07:18:21;8.30;99.90
23869;DHT22;12115;47.128;15.422;2023-04-01T07:20:53;8.60;99.90
23869;DHT22;12115;47.128;15.422;2023-04-01T07:23:26;8.80;99.90
23869;DHT22;12115;47.128;15.422;2023-04-01T07:26:28;8.90;99.90
23869;DHT22;12115;47.128;15.422;2023-04-01T07:29:22;9.00;99.90
23869;DHT22;12115;47.128;15.422;2023-04-01T07:37:26;9.30;99.90
23869;DHT22;12115;47.128;15.422;2023-04-01T07:40:31;9.40;99.90
23869;DHT22;12115;47.128;15.422;2023-04-01T07:54:43;10.10;99.90
23869;DHT22;12115;47.128;15.422;2023-04-01T08:11:31;10.70;99.90
23869;DHT22;12115;47.128;15.422;2023-04-01T08:14:47;10.90;99.90
23869;DHT22;12115;47.128;15.422;2023-04-01T08:17:55;11.10;99.90
23869;DHT22;12115;47.128;15.422;2023-04-01T08:20:52;11.20;99.90
23869;DHT22;12115;47.128;15.422;2023-04-01T08:23:36;11.30;99.90
23869;DHT22;12115;47.128;15.422;2023-04-01T08:26:35;11.40;99.90
23869;DHT22;12115;47.128;15.422;2023-04-01T08:29:16;11.50;99.90
23869;DHT22;12115;47.128;15.422;2023-04-01T08:32:30;11.60;99.90
23869;DHT22;12115;47.128;15.422;2023-04-01T08:35:19;11.80;99.90
23869;DHT22;12115;47.128;15.422;2023-04-01T08:37:52;11.80;99.90
23869;DHT22;12115;47.128;15.422;2023-04-01T09:00:13;12.10;99.90
23869;DHT22;12115;47.128;15.422;2023-04-01T09:03:20;12.10;99.90
23869;DHT22;12115;47.128;15.422;2023-04-01T09:17:29;12.50;99.90
23869;DHT22;12115;47.128;15.422;2023-04-01T09:23:29;12.60;99.90
23869;DHT22;12115;47.128;15.422;2023-04-01T09:51:35;13.30;99.90
23869;DHT22;12115;47.128;15.422;2023-04-01T09:57:39;13.40;99.90
23869;DHT22;12115;47.128;15.422;2023-04-01T10:10:19;13.70;99.90
23869;DHT22;12115;47.128;15.422;2023-04-01T10:18:56;13.70;99.90
23869;DHT22;12115;47.128;15.422;2023-04-01T10:51:38;13.80;99.90
23869;DHT22;12115;47.128;15.422;2023-04-01T11:16:43;14.10;99.90
23869;DHT22;12115;47.128;15.422;2023-04-01T11:25:11;14.20;99.90
23869;DHT22;12115;47.128;15.422;2023-04-01T11:43:37;14.40;99.90
23869;DHT22;12115;47.128;15.422;2023-04-01T11:47:07;14.40;99.90
23869;DHT22;12115;47.128;15.422;2023-04-01T12:00:25;14.60;98.60
23869;DHT22;12115;47.128;15.422;2023-04-01T12:18:13;14.50;97.50
23869;DHT22;12115;47.128;15.422;2023-04-01T12:32:40;14.90;97.20
23869;DHT22;12115;47.128;15.422;2023-04-01T12:41:22;15.00;96.70
23869;DHT22;12115;47.128;15.422;2023-04-01T12:55:37;15.10;96.20
23869;DHT22;12115;47.128;15.422;2023-04-01T13:10:07;15.20;95.40
23869;DHT22;12115;47.128;15.422;2023-04-01T13:16:05;15.10;94.20
23869;DHT22;12115;47.128;15.422;2023-04-01T13:21:58;15.10;94.90
23869;DHT22;12115;47.128;15.422;2023-04-01T13:24:31;15.10;95.50
23869;DHT22;12115;47.128;15.422;2023-04-01T13:30:49;15.10;95.10
23869;DHT22;12115;47.128;15.422;2023-04-01T13:33:47;15.10;94.40
23869;DHT22;12115;47.128;15.422;2023-04-01T14:18:17;15.50;90.80
23869;DHT22;12115;47.128;15.422;2023-04-01T14:21:01;15.40;90.60
23869;DHT22;12115;47.128;15.422;2023-04-01T14:39:45;15.30;88.80
23869;DHT22;12115;47.128;15.422;2023-04-01T14:42:45;15.30;88.30
23869;DHT22;12115;47.128;15.422;2023-04-01T14:51:35;15.30;87.10
23869;DHT22;12115;47.128;15.422;2023-04-01T14:54:18;15.20;85.50
23869;DHT22;12115;47.128;15.422;2023-04-01T15:00:13;15.20;84.30
23869;DHT22;12115;47.128;15.422;2023-04-01T15:03:02;15.20;85.30
23869;DHT22;12115;47.128;15.422;2023-04-01T15:06:20;15.20;85.90
23869;DHT22;12115;47.128;15.422;2023-04-01T15:09:22;15.30;85.20
23869;DHT22;12115;47.128;15.422;2023-04-01T15:17:54;15.40;84.50
23869;DHT22;12115;47.128;15.422;2023-04-01T15:21:13;15.50;84.80
23869;DHT22;12115;47.128;15.422;2023-04-01T15:29:06;15.40;82.90
23869;DHT22;12115;47.128;15.422;2023-04-01T15:31:47;15.40;82.20
23869;DHT22;12115;47.128;15.422;2023-04-01T15:37:18;15.30;82.10
23869;DHT22;12115;47.128;15.422;2023-04-01T15:39:57;15.40;85.60
23869;DHT22;12115;47.128;15.422;2023-04-01T15:43:46;15.40;85.40
23869;DHT22;12115;47.128;15.422;2023-04-01T16:00:28;15.60;92.10
23869;DHT22;12115;47.128;15.422;2023-04-01T16:20:25;15.50;88.40
23869;DHT22;12115;47.128;15.422;2023-04-01T16:23:30;15.40;88.50
23869;DHT22;12115;47.128;15.422;2023-04-01T16:42:56;15.10;90.90
23869;DHT22;12115;47.128;15.422;2023-04-01T16:48:15;15.10;90.60
23869;DHT22;12115;47.128;15.422;2023-04-01T16:51:09;15.00;91.90
23869;DHT22;12115;47.128;15.422;2023-04-01T16:53:47;14.90;92.20
23869;DHT22;12115;47.128;15.422;2023-04-01T16:56:23;14.90;92.40
23869;DHT22;12115;47.128;15.422;2023-04-01T17:01:25;14.80;92.20
23869;DHT22;12115;47.128;15.422;2023-04-01T17:03:58;14.80;92.80
23869;DHT22;12115;47.128;15.422;2023-04-01T17:06:31;14.70;93.40
23869;DHT22;12115;47.128;15.422;2023-04-01T17:15:05;14.60;92.60
23869;DHT22;12115;47.128;15.422;2023-04-01T17:23:37;14.20;93.70
23869;DHT22;12115;47.128;15.422;2023-04-01T17:29:33;14.30;93.90
23869;DHT22;12115;47.128;15.422;2023-04-01T17:32:20;14.20;93.90
23869;DHT22;12115;47.128;15.422;2023-04-01T17:41:09;14.00;94.60
23869;DHT22;12115;47.128;15.422;2023-04-01T17:52:30;13.80;94.40
23869;DHT22;12115;47.128;15.422;2023-04-01T18:01:17;13.70;93.80
23869;DHT22;12115;47.128;15.422;2023-04-01T18:10:27;13.60;93.00
23869;DHT22;12115;47.128;15.422;2023-04-01T18:21:39;13.50;92.90
23869;DHT22;12115;47.128;15.422;2023-04-01T18:24:42;13.50;93.00
23869;DHT22;12115;47.128;15.422;2023-04-01T18:27:28;13.40;93.30
23869;DHT22;12115;47.128;15.422;2023-04-01T18:30:22;13.40;93.30
23869;DHT22;12115;47.128;15.422;2023-04-01T18:33:16;13.40;93.30
23869;DHT22;12115;47.128;15.422;2023-04-01T18:36:33;13.40;93.60
23869;DHT22;12115;47.128;15.422;2023-04-01T18:38:51;13.40;93.80
23869;DHT22;12115;47.128;15.422;2023-04-01T18:48:08;13.30;94.50
23869;DHT22;12115;47.128;15.422;2023-04-01T18:50:56;13.30;95.50
23869;DHT22;12115;47.128;15.422;2023-04-01T18:56:10;13.20;95.20
23869;DHT22;12115;47.128;15.422;2023-04-01T18:59:10;13.20;95.60
23869;DHT22;12115;47.128;15.422;2023-04-01T19:02:24;13.10;96.10
23869;DHT22;12115;47.128;15.422;2023-04-01T19:07:48;13.00;95.70
23869;DHT22;12115;47.128;15.422;2023-04-01T19:10:46;13.00;95.60
23869;DHT22;12115;47.128;15.422;2023-04-01T19:13:35;12.90;95.40
23869;DHT22;12115;47.128;15.422;2023-04-01T19:16:09;12.90;95.40
23869;DHT22;12115;47.128;15.422;2023-04-01T19:21:58;12.80;95.50
23869;DHT22;12115;47.128;15.422;2023-04-01T19:36:24;12.60;96.50
23869;DHT22;12115;47.128;15.422;2023-04-01T19:46:57;12.50;96.70
23869;DHT22;12115;47.128;15.422;2023-04-01T19:52:23;12.40;96.70
23869;DHT22;12115;47.128;15.422;2023-04-01T19:57:38;12.30;97.10
23869;DHT22;12115;47.128;15.422;2023-04-01T20:05:56;12.10;98.30
23869;DHT22;12115;47.128;15.422;2023-04-01T20:08:56;12.10;98.20
23869;DHT22;12115;47.128;15.422;2023-04-01T20:14:38;12.00;98.60
23869;DHT22;12115;47.128;15.422;2023-04-01T20:17:21;12.00;99.20
23869;DHT22;12115;47.128;15.422;2023-04-01T20:20:21;11.90;99.10
23869;DHT22;12115;47.128;15.422;2023-04-01T20:25:49;11.80;99.60
23869;DHT22;12115;47.128;15.422;2023-04-01T20:28:28;11.80;99.70
23869;DHT22;12115;47.128;15.422;2023-04-01T20:31:04;11.80;99.60
23869;DHT22;12115;47.128;15.422;2023-04-01T20:39:20;11.70;99.80
23869;DHT22;12115;47.128;15.422;2023-04-01T20:48:02;11.50;99.90
23869;DHT22;12115;47.128;15.422;2023-04-01T20:59:16;11.40;99.90
23869;DHT22;12115;47.128;15.422;2023-04-01T21:05:05;11.40;99.90
23869;DHT22;12115;47.128;15.422;2023-04-01T21:07:41;11.30;99.90
23869;DHT22;12115;47.128;15.422;2023-04-01T21:13:24;11.20;99.90
23869;DHT22;12115;47.128;15.422;2023-04-01T21:25:00;11.00;99.90
23869;DHT22;12115;47.128;15.422;2023-04-01T21:35:22;11.00;99.90
23869;DHT22;12115;47.128;15.422;2023-04-01T21:41:29;10.90;99.90
23869;DHT22;12115;47.128;15.422;2023-04-01T21:50:44;10.90;99.90
23869;DHT22;12115;47.128;15.422;2023-04-01T22:02:44;10.80;99.90
23869;DHT22;12115;47.128;15.422;2023-04-01T22:05:17;10.80;99.90
23869;DHT22;12115;47.128;15.422;2023-04-01T22:13:46;10.60;99.90
23869;DHT22;12115;47.128;15.422;2023-04-01T22:16:37;10.50;99.90
23869;DHT22;12115;47.128;15.422;2023-04-01T22:19:36;10.50;99.90
23869;DHT22;12115;47.128;15.422;2023-04-01T22:22:16;10.60;99.90
23869;DHT22;12115;47.128;15.422;2023-04-01T22:30:04;10.40;99.90
23869;DHT22;12115;47.128;15.422;2023-04-01T22:32:46;10.50;99.90
23869;DHT22;12115;47.128;15.422;2023-04-01T22:38:20;10.40;99.90
23869;DHT22;12115;47.128;15.422;2023-04-01T22:41:00;10.40;99.90
23869;DHT22;12115;47.128;15.422;2023-04-01T22:43:43;10.30;99.90
23869;DHT22;12115;47.128;15.422;2023-04-01T22:46:26;10.30;99.90
23869;DHT22;12115;47.128;15.422;2023-04-01T22:52:20;10.30;99.90
23869;DHT22;12115;47.128;15.422;2023-04-01T22:54:53;10.30;99.90
23869;DHT22;12115;47.128;15.422;2023-04-01T23:00:56;10.20;99.90
23869;DHT22;12115;47.128;15.422;2023-04-01T23:03:46;10.20;99.90
23869;DHT22;12115;47.128;15.422;2023-04-01T23:06:23;10.20;99.90
23869;DHT22;12115;47.128;15.422;2023-04-01T23:12:03;10.20;99.90
23869;DHT22;12115;47.128;15.422;2023-04-01T23:14:39;10.20;99.90
23869;DHT22;12115;47.128;15.422;2023-04-01T23:20:02;10.10;99.90
23869;DHT22;12115;47.128;15.422;2023-04-01T23:25:44;10.00;99.90
23869;DHT22;12115;47.128;15.422;2023-04-01T23:34:19;9.80;99.90
23869;DHT22;12115;47.128;15.422;2023-04-01T23:36:45;9.80;99.90
23869;DHT22;12115;47.128;15.422;2023-04-01T23:39:24;9.70;99.90
23869;DHT22;12115;47.128;15.422;2023-04-01T23:41:56;9.70;99.90
23869;DHT22;12115;47.128;15.422;2023-04-01T23:44:26;9.60;99.90
23869;DHT22;12115;47.128;15.422;2023-04-01T23:46:57;9.50;99.90
23869;DHT22;12115;47.128;15.422;2023-04-01T23:49:30;9.50;99.90
23869;DHT22;12115;47.128;15.422;2023-04-01T23:52:11;9.40;99.90
23869;DHT22;12115;47.128;15.422;2023-04-01T23:57:19;9.40;99.90
